SBJP/JPA METAR and TAF weather

Enter ICAO airport designator
Station Type Date Time Source
SBJP METAR 2020/02/24 08:00 UTC NOAA

SBJP 240800Z 11004KT 9999 FEW020 26/24 Q1012


Station Type Date Time Source
SBJP Decoded METAR 2020/02/24 08:00 UTC NOAA

Joao Pessoa, Brazil (SBJP) 07-06S 034-52W
Feb 24, 2020 - 03:00 AM EST / 2020.02.24 0800 UTC
Wind: from the ESE (110 degrees) at 5 MPH (4 KT):0
Visibility: greater than 7 mile(s):0
Sky conditions: mostly clear
Temperature: 78 F (26 C)
Dew Point: 75 F (24 C)
Relative Humidity: 88%
Pressure (altimeter): 29.88 in. Hg (1012 hPa)
ob: SBJP 240800Z 11004KT 9999 FEW020 26/24 Q1012
cycle: 8

Station Type Date Time Source
SBJP TAF 2020/02/24 06:18 UTC NOAA

TAF TAF SBJP 240400Z 2406/2506 04005KT 4000 RA BKN008 SCT015 TN25/2408Z TX32/2416Z
BECMG 2409/2411 17008KT 8000 SHRA BKN025
BECMG 2416/2418 FEW040
BECMG 2421/2423 02005KT FEW020
BECMG 2503/2505 02005KT 8000 BKN015
RMK PAY

Example: see airport list